createdAt,value
2018-12-08T00:00:05.836Z,78.90
2018-12-08T00:01:08.408Z,78.90
2018-12-08T00:02:05.358Z,78.90
2018-12-08T00:03:05.612Z,79.10
2018-12-08T00:04:08.726Z,79.00
2018-12-08T00:05:05.721Z,79.00
2018-12-08T00:06:08.362Z,79.00
2018-12-08T00:07:07.884Z,79.00
2018-12-08T00:08:05.009Z,79.00
2018-12-08T00:09:05.085Z,79.00
2018-12-08T00:10:05.141Z,78.90
2018-12-08T00:11:05.235Z,79.00
2018-12-08T00:12:05.335Z,79.00
2018-12-08T00:13:05.600Z,78.90
2018-12-08T00:14:05.894Z,78.80
2018-12-08T00:15:07.554Z,79.00
2018-12-08T00:16:08.042Z,79.30
2018-12-08T00:17:07.552Z,79.10
2018-12-08T00:18:05.469Z,79.10
2018-12-08T00:19:05.571Z,78.90
2018-12-08T00:20:08.268Z,78.80
2018-12-08T00:21:05.291Z,78.90
2018-12-08T00:22:05.524Z,78.40
2018-12-08T00:23:05.810Z,78.80
2018-12-08T00:24:05.913Z,78.90
2018-12-08T00:25:05.014Z,79.10
2018-12-08T00:26:05.133Z,79.30
2018-12-08T00:27:10.377Z,79.10
2018-12-08T00:28:05.553Z,79.10
2018-12-08T00:29:08.268Z,79.30
2018-12-08T00:30:05.215Z,79.30
2018-12-08T00:31:07.908Z,78.90
2018-12-08T00:32:08.522Z,79.00
2018-12-08T00:33:08.110Z,79.10
2018-12-08T00:34:05.224Z,79.10
2018-12-08T00:35:05.436Z,79.20
2018-12-08T00:36:05.277Z,79.20
2018-12-08T00:37:07.982Z,79.10
2018-12-08T00:38:08.501Z,79.20
2018-12-08T00:39:05.455Z,79.10
2018-12-08T00:40:10.550Z,79.10
2018-12-08T00:41:08.085Z,78.90
2018-12-08T00:42:07.566Z,79.10
2018-12-08T00:43:08.134Z,78.90
2018-12-08T00:44:05.189Z,78.90
2018-12-08T00:45:05.296Z,79.10
2018-12-08T00:46:08.057Z,79.40
2018-12-08T00:47:05.183Z,79.40
2018-12-08T00:48:05.486Z,79.40
2018-12-08T00:49:05.831Z,79.40
2018-12-08T00:50:05.941Z,79.30
2018-12-08T00:51:05.058Z,79.40
2018-12-08T00:52:07.666Z,79.30
2018-12-08T00:53:08.092Z,79.70
2018-12-08T00:54:07.562Z,79.40
2018-12-08T00:55:05.643Z,79.40
2018-12-08T00:56:05.796Z,79.40
2018-12-08T00:57:05.878Z,79.50
2018-12-08T00:58:05.940Z,79.50
2018-12-08T00:59:12.603Z,79.60
2018-12-08T01:00:08.067Z,79.70
2018-12-08T01:01:05.041Z,79.70
2018-12-08T01:02:07.735Z,79.70
2018-12-08T01:03:05.746Z,79.70
2018-12-08T01:04:05.853Z,79.60
2018-12-08T01:05:06.005Z,79.80
2018-12-08T01:06:07.705Z,79.70
2018-12-08T01:07:05.754Z,79.80
2018-12-08T01:08:05.865Z,79.70
2018-12-08T01:09:05.963Z,79.60
2018-12-08T01:10:07.572Z,79.80
2018-12-08T01:11:05.620Z,79.80
2018-12-08T01:12:08.270Z,79.50
2018-12-08T01:13:05.367Z,79.50
2018-12-08T01:14:08.051Z,79.40
2018-12-08T01:15:05.091Z,79.40
2018-12-08T01:16:05.370Z,79.50
2018-12-08T01:17:05.687Z,79.50
2018-12-08T01:18:08.266Z,79.30
2018-12-08T01:19:07.787Z,79.40
2018-12-08T01:20:05.854Z,79.40
2018-12-08T01:21:05.077Z,79.40
2018-12-08T01:22:05.224Z,79.30
2018-12-08T01:23:07.844Z,79.40
2018-12-08T01:24:05.942Z,79.40
2018-12-08T01:25:05.108Z,79.30
2018-12-08T01:26:05.247Z,79.40
2018-12-08T01:27:05.395Z,79.60
2018-12-08T01:28:05.641Z,79.50
2018-12-08T01:29:08.304Z,79.60
2018-12-08T01:30:07.739Z,79.80
2018-12-08T01:31:05.701Z,79.60
2018-12-08T01:32:10.896Z,79.60
2018-12-08T01:33:08.482Z,79.70
2018-12-08T01:34:08.057Z,79.80
2018-12-08T01:35:05.089Z,79.70
2018-12-08T01:36:12.934Z,79.90
2018-12-08T01:37:10.982Z,79.70
2018-12-08T01:38:11.154Z,79.70
2018-12-08T01:39:07.740Z,79.90
2018-12-08T01:40:05.738Z,79.80
2018-12-08T01:41:08.336Z,79.60
2018-12-08T01:42:05.504Z,79.60
2018-12-08T01:43:08.233Z,79.70
2018-12-08T01:44:05.355Z,79.70
2018-12-08T01:45:05.635Z,79.50
2018-12-08T01:46:05.982Z,79.70
2018-12-08T01:47:05.186Z,79.70
2018-12-08T01:48:07.909Z,79.70
2018-12-08T01:49:11.032Z,79.80
2018-12-08T01:50:05.002Z,79.80
2018-12-08T01:51:07.681Z,79.70
2018-12-08T01:52:05.784Z,79.70
2018-12-08T01:53:05.986Z,79.70
2018-12-08T01:54:07.623Z,79.60
2018-12-08T01:55:08.170Z,79.80
2018-12-08T01:56:05.153Z,79.70
2018-12-08T01:57:05.297Z,79.70
2018-12-08T01:58:07.910Z,79.50
2018-12-08T01:59:05.925Z,79.50
2018-12-08T02:00:05.160Z,79.50
2018-12-08T02:01:05.394Z,79.50
2018-12-08T02:02:05.593Z,79.50
2018-12-08T02:03:05.856Z,79.60
2018-12-08T02:04:10.141Z,79.70
2018-12-08T02:05:05.107Z,79.70
2018-12-08T02:06:05.243Z,79.60
2018-12-08T02:07:05.345Z,79.50
2018-12-08T02:08:05.481Z,79.40
2018-12-08T02:09:05.719Z,79.40
2018-12-08T02:10:08.382Z,78.90
2018-12-08T02:11:07.825Z,79.00
2018-12-08T02:12:05.789Z,79.00
2018-12-08T02:13:08.533Z,79.10
2018-12-08T02:14:05.674Z,79.10
2018-12-08T02:15:05.806Z,79.00
2018-12-08T02:16:08.407Z,78.80
2018-12-08T02:17:05.558Z,78.90
2018-12-08T02:18:05.870Z,78.80
2018-12-08T02:19:07.652Z,78.70
2018-12-08T02:20:05.656Z,78.80
2018-12-08T02:21:08.288Z,78.90
2018-12-08T02:22:05.312Z,78.90
2018-12-08T02:23:07.921Z,79.00
2018-12-08T02:24:05.977Z,79.00
2018-12-08T02:25:05.097Z,79.10
2018-12-08T02:26:07.852Z,78.90
2018-12-08T02:27:05.906Z,78.80
2018-12-08T02:28:05.230Z,78.80
2018-12-08T02:29:07.947Z,79.00
2018-12-08T02:30:06.120Z,79.00
2018-12-08T02:31:07.846Z,78.70
2018-12-08T02:32:05.979Z,78.70
2018-12-08T02:33:05.129Z,78.70
2018-12-08T02:34:05.295Z,78.60
2018-12-08T02:35:05.464Z,78.40
2018-12-08T02:36:08.361Z,78.50
2018-12-08T02:37:05.452Z,78.50
2018-12-08T02:38:05.714Z,78.50
2018-12-08T02:39:06.012Z,78.70
2018-12-08T02:40:10.191Z,78.70
2018-12-08T02:41:07.737Z,78.70
2018-12-08T02:42:05.741Z,78.70
2018-12-08T02:43:05.923Z,78.60
2018-12-08T02:44:07.672Z,78.70
2018-12-08T02:45:08.266Z,78.50
2018-12-08T02:46:05.255Z,78.50
2018-12-08T02:47:07.922Z,78.50
2018-12-08T02:48:08.458Z,78.40
2018-12-08T02:49:05.468Z,78.50
2018-12-08T02:50:08.228Z,78.70
2018-12-08T02:51:07.759Z,78.70
2018-12-08T02:52:05.723Z,78.60
2018-12-08T02:53:05.842Z,78.50
2018-12-08T02:54:07.726Z,78.80
2018-12-08T02:55:06.326Z,78.80
2018-12-08T02:56:08.018Z,78.80
2018-12-08T02:57:05.055Z,78.80
2018-12-08T02:58:07.749Z,78.80
2018-12-08T02:59:10.890Z,78.50
2018-12-08T03:00:06.105Z,78.50
2018-12-08T03:01:05.318Z,78.40
2018-12-08T03:02:05.459Z,78.50
2018-12-08T03:03:05.874Z,78.60
2018-12-08T03:04:05.071Z,78.60
2018-12-08T03:05:05.221Z,78.60
2018-12-08T03:06:07.927Z,78.50
2018-12-08T03:07:05.925Z,78.50
2018-12-08T03:08:05.093Z,78.30
2018-12-08T03:09:05.258Z,78.20
2018-12-08T03:10:08.511Z,77.90
2018-12-08T03:11:05.541Z,77.90
2018-12-08T03:12:08.281Z,77.60
2018-12-08T03:13:07.953Z,77.70
2018-12-08T03:14:05.965Z,77.80
2018-12-08T03:15:05.114Z,77.70
2018-12-08T03:16:05.271Z,77.60
2018-12-08T03:17:05.419Z,77.70
2018-12-08T03:18:10.642Z,77.60
2018-12-08T03:19:08.172Z,77.50
2018-12-08T03:20:10.214Z,77.50
2018-12-08T03:21:05.284Z,77.70
2018-12-08T03:22:05.480Z,77.70
2018-12-08T03:23:05.789Z,77.60
2018-12-08T03:24:06.066Z,77.70
2018-12-08T03:25:07.715Z,77.90
2018-12-08T03:26:05.707Z,77.90
2018-12-08T03:27:05.893Z,78.10
2018-12-08T03:28:05.092Z,78.30
2018-12-08T03:29:08.025Z,78.30
2018-12-08T03:30:05.232Z,78.30
2018-12-08T03:31:05.439Z,78.30
2018-12-08T03:32:13.297Z,78.20
2018-12-08T03:33:05.449Z,78.10
2018-12-08T03:34:05.571Z,78.10
2018-12-08T03:35:05.812Z,78.10
2018-12-08T03:36:05.119Z,78.10
2018-12-08T03:37:05.363Z,78.20
2018-12-08T03:38:05.719Z,78.00
2018-12-08T03:39:05.845Z,78.20
2018-12-08T03:40:05.980Z,78.00
2018-12-08T03:41:05.246Z,77.80
2018-12-08T03:42:10.595Z,77.50
2018-12-08T03:43:08.147Z,77.30
2018-12-08T03:44:05.211Z,77.30
2018-12-08T03:45:05.341Z,77.20
2018-12-08T03:46:08.146Z,76.60
2018-12-08T03:47:05.224Z,76.60
2018-12-08T03:48:05.468Z,76.60
2018-12-08T03:49:05.979Z,76.20
2018-12-08T03:50:05.165Z,76.30
2018-12-08T03:51:07.792Z,75.80
2018-12-08T03:52:05.859Z,75.80
2018-12-08T03:53:08.703Z,75.70
2018-12-08T03:54:08.237Z,75.40
2018-12-08T03:55:05.396Z,75.30
2018-12-08T03:56:08.079Z,75.30
2018-12-08T03:57:07.705Z,75.30
2018-12-08T03:58:08.370Z,75.10
2018-12-08T03:59:05.423Z,75.10
2018-12-08T04:00:05.546Z,75.10
2018-12-08T04:01:08.137Z,74.90
2018-12-08T04:02:05.422Z,74.90
2018-12-08T04:03:05.619Z,75.00
2018-12-08T04:04:05.822Z,74.80
2018-12-08T04:05:08.496Z,74.70
2018-12-08T04:06:05.530Z,74.80
2018-12-08T04:07:05.642Z,74.80
2018-12-08T04:08:05.879Z,74.70
2018-12-08T04:09:05.066Z,74.70
2018-12-08T04:10:05.954Z,74.80
2018-12-08T04:11:05.098Z,74.80
2018-12-08T04:12:05.206Z,74.70
2018-12-08T04:13:05.348Z,74.50
2018-12-08T04:14:05.705Z,74.60
2018-12-08T04:15:10.910Z,74.70
2018-12-08T04:16:05.936Z,74.70
2018-12-08T04:17:05.103Z,74.70
2018-12-08T04:18:07.986Z,74.70
2018-12-08T04:19:07.670Z,74.60
2018-12-08T04:20:05.776Z,74.60
2018-12-08T04:21:05.628Z,74.60
2018-12-08T04:22:08.400Z,74.70
2018-12-08T04:23:05.432Z,74.80
2018-12-08T04:24:05.576Z,74.90
2018-12-08T04:25:05.977Z,74.80
2018-12-08T04:26:07.621Z,74.80
2018-12-08T04:27:08.269Z,74.70
2018-12-08T04:28:05.640Z,74.60
2018-12-08T04:29:08.425Z,74.70
2018-12-08T04:30:07.982Z,74.60
2018-12-08T04:31:05.073Z,74.60
2018-12-08T04:32:05.214Z,74.80
2018-12-08T04:33:05.437Z,74.90
2018-12-08T04:34:08.123Z,75.10
2018-12-08T04:35:05.151Z,75.10
2018-12-08T04:36:05.411Z,75.10
2018-12-08T04:37:05.551Z,75.30
2018-12-08T04:38:08.134Z,75.40
2018-12-08T04:39:05.163Z,75.40
2018-12-08T04:40:07.944Z,75.60
2018-12-08T04:41:05.958Z,75.60
2018-12-08T04:42:05.211Z,75.80
2018-12-08T04:43:05.276Z,75.90
2018-12-08T04:44:05.437Z,76.10
2018-12-08T04:45:10.680Z,76.70
2018-12-08T04:46:05.814Z,76.70
2018-12-08T04:47:05.001Z,77.00
2018-12-08T04:48:05.088Z,77.00
2018-12-08T04:49:05.249Z,77.20
2018-12-08T04:50:08.241Z,77.40
2018-12-08T04:51:05.199Z,77.40
2018-12-08T04:52:05.309Z,77.40
2018-12-08T04:53:05.539Z,77.60
2018-12-08T04:54:05.681Z,77.60
2018-12-08T04:55:05.874Z,77.70
2018-12-08T04:56:08.511Z,77.70
2018-12-08T04:57:08.016Z,77.90
2018-12-08T04:58:07.572Z,77.90
2018-12-08T04:59:05.754Z,77.70
2018-12-08T05:00:05.916Z,78.00
2018-12-08T05:01:05.144Z,78.10
2018-12-08T05:02:05.419Z,78.20
2018-12-08T05:03:05.716Z,78.20
2018-12-08T05:04:10.942Z,78.40
2018-12-08T05:05:08.465Z,78.50
2018-12-08T05:06:05.427Z,78.50
2018-12-08T05:07:05.537Z,78.50
2018-12-08T05:08:05.831Z,78.60
2018-12-08T05:09:06.057Z,78.70
2018-12-08T05:10:07.784Z,78.90
2018-12-08T05:11:08.358Z,78.90
2018-12-08T05:12:05.437Z,78.90
2018-12-08T05:13:05.625Z,79.00
2018-12-08T05:14:05.899Z,78.90
2018-12-08T05:15:05.157Z,79.00
2018-12-08T05:16:08.007Z,78.90
2018-12-08T05:17:05.057Z,78.90
2018-12-08T05:18:05.236Z,79.10
2018-12-08T05:19:07.945Z,79.20
2018-12-08T05:20:08.559Z,79.40
2018-12-08T05:21:05.574Z,79.40
2018-12-08T05:22:10.847Z,79.70
2018-12-08T05:23:05.818Z,79.70
2018-12-08T05:24:08.636Z,79.70
2018-12-08T05:25:08.626Z,79.70
2018-12-08T05:26:05.627Z,79.70
2018-12-08T05:27:05.906Z,79.70
2018-12-08T05:28:05.228Z,79.80
2018-12-08T05:29:05.405Z,79.80
2018-12-08T05:30:05.921Z,79.80
2018-12-08T05:31:05.018Z,79.80
2018-12-08T05:32:05.150Z,79.90
2018-12-08T05:33:07.793Z,79.60
2018-12-08T05:34:05.780Z,79.80
2018-12-08T05:35:08.438Z,79.50
2018-12-08T05:36:07.978Z,79.50
2018-12-08T05:37:05.033Z,79.50
2018-12-08T05:38:07.733Z,79.40
2018-12-08T05:39:08.403Z,79.40
2018-12-08T05:40:05.533Z,79.40
2018-12-08T05:41:05.772Z,79.40
2018-12-08T05:42:05.939Z,79.40
2018-12-08T05:43:05.185Z,79.30
2018-12-08T05:44:05.362Z,79.10
2018-12-08T05:45:05.892Z,79.10
2018-12-08T05:46:10.162Z,79.00
2018-12-08T05:47:05.325Z,78.90
2018-12-08T05:48:05.541Z,78.80
2018-12-08T05:49:05.842Z,78.40
2018-12-08T05:50:05.034Z,78.30
2018-12-08T05:51:05.170Z,78.30
2018-12-08T05:52:07.809Z,78.00
2018-12-08T05:53:08.424Z,77.90
2018-12-08T05:54:05.475Z,77.80
2018-12-08T05:55:05.786Z,77.80
2018-12-08T05:56:08.482Z,77.80
2018-12-08T05:57:05.477Z,77.70
2018-12-08T05:58:05.642Z,77.60
2018-12-08T05:59:08.345Z,77.50
2018-12-08T06:00:07.875Z,77.60
2018-12-08T06:01:06.060Z,77.80
2018-12-08T06:02:05.163Z,77.50
2018-12-08T06:03:07.761Z,77.20
2018-12-08T06:04:05.850Z,77.20
2018-12-08T06:05:05.351Z,77.30
2018-12-08T06:06:08.001Z,77.10
2018-12-08T06:07:05.968Z,77.10
2018-12-08T06:08:05.266Z,77.10
2018-12-08T06:09:05.531Z,77.00
2018-12-08T06:10:05.772Z,77.00
2018-12-08T06:11:08.428Z,77.00
2018-12-08T06:12:07.925Z,76.90
2018-12-08T06:13:08.436Z,76.90
2018-12-08T06:14:05.546Z,76.90
2018-12-08T06:15:05.744Z,76.80
2018-12-08T06:16:08.464Z,76.80
2018-12-08T06:17:05.552Z,76.80
2018-12-08T06:18:05.734Z,76.80
2018-12-08T06:19:05.817Z,76.90
2018-12-08T06:20:06.086Z,76.80
2018-12-08T06:21:07.747Z,76.70
2018-12-08T06:22:08.286Z,76.70
2018-12-08T06:23:07.857Z,76.70
2018-12-08T06:24:05.929Z,76.70
2018-12-08T06:25:05.039Z,76.70
2018-12-08T06:26:07.782Z,76.60
2018-12-08T06:27:05.828Z,76.60
2018-12-08T06:28:06.083Z,76.80
2018-12-08T06:29:07.926Z,76.70
2018-12-08T06:30:08.528Z,76.70
2018-12-08T06:31:08.038Z,76.80
2018-12-08T06:32:04.999Z,76.80
2018-12-08T06:33:05.175Z,76.80
2018-12-08T06:34:05.431Z,77.00
2018-12-08T06:35:08.244Z,77.00
2018-12-08T06:36:05.424Z,77.00
2018-12-08T06:37:08.220Z,77.00
2018-12-08T06:38:05.205Z,77.10
2018-12-08T06:39:05.349Z,77.10
2018-12-08T06:40:05.574Z,77.20
2018-12-08T06:41:05.772Z,77.30
2018-12-08T06:42:05.852Z,77.30
2018-12-08T06:43:05.937Z,77.30
2018-12-08T06:44:07.805Z,77.30
2018-12-08T06:45:05.862Z,77.30
2018-12-08T06:46:05.024Z,77.30
2018-12-08T06:47:05.204Z,77.30
2018-12-08T06:48:07.975Z,77.20
2018-12-08T06:49:05.018Z,77.20
2018-12-08T06:50:07.688Z,77.20
2018-12-08T06:51:05.773Z,77.20
2018-12-08T06:52:05.920Z,77.20
2018-12-08T06:53:10.653Z,77.30
2018-12-08T06:54:08.298Z,77.10
2018-12-08T06:55:05.288Z,77.30
2018-12-08T06:56:05.441Z,77.20
2018-12-08T06:57:05.618Z,77.40
2018-12-08T06:58:10.739Z,77.40
2018-12-08T06:59:05.789Z,77.50
2018-12-08T07:00:05.964Z,77.20
2018-12-08T07:01:05.138Z,77.40
2018-12-08T07:02:05.352Z,77.50
2018-12-08T07:03:05.597Z,77.40
2018-12-08T07:04:05.899Z,77.00
2018-12-08T07:05:07.683Z,77.20
2018-12-08T07:06:08.313Z,77.50
2018-12-08T07:07:05.366Z,77.20
2018-12-08T07:08:08.028Z,76.80
2018-12-08T07:09:07.619Z,77.10
2018-12-08T07:10:10.829Z,76.90
2018-12-08T07:11:10.878Z,77.10
2018-12-08T07:12:05.967Z,77.00
2018-12-08T07:13:10.376Z,77.10
2018-12-08T07:14:08.034Z,77.20
2018-12-08T07:15:05.114Z,77.00
2018-12-08T07:16:07.721Z,77.20
2018-12-08T07:17:08.551Z,77.30
2018-12-08T07:18:08.154Z,77.50
2018-12-08T07:19:05.216Z,77.50
2018-12-08T07:20:05.606Z,77.50
2018-12-08T07:21:05.799Z,77.60
2018-12-08T07:22:08.502Z,77.70
2018-12-08T07:23:05.511Z,77.70
2018-12-08T07:24:08.262Z,77.50
2018-12-08T07:25:05.191Z,77.50
2018-12-08T07:26:07.994Z,77.60
2018-12-08T07:27:07.628Z,77.70
2018-12-08T07:28:05.827Z,77.70
2018-12-08T07:29:10.115Z,77.70
2018-12-08T07:30:07.783Z,77.90
2018-12-08T07:31:05.853Z,77.90
2018-12-08T07:32:05.997Z,78.10
2018-12-08T07:33:05.142Z,78.20
2018-12-08T07:34:07.987Z,78.30
2018-12-08T07:35:07.511Z,78.30
2018-12-08T07:36:05.475Z,78.20
2018-12-08T07:37:05.693Z,78.20
2018-12-08T07:38:08.478Z,78.20
2018-12-08T07:39:05.498Z,78.20
2018-12-08T07:40:08.125Z,78.10
2018-12-08T07:41:05.256Z,78.10
2018-12-08T07:42:05.468Z,78.00
2018-12-08T07:43:05.800Z,78.10
2018-12-08T07:44:08.293Z,77.90
2018-12-08T07:45:05.321Z,77.80
2018-12-08T07:46:07.931Z,77.70
2018-12-08T07:47:05.979Z,77.70
2018-12-08T07:48:05.257Z,77.60
2018-12-08T07:49:05.491Z,77.60
2018-12-08T07:50:10.817Z,77.50
2018-12-08T07:51:05.952Z,77.60
2018-12-08T07:52:07.749Z,77.30
2018-12-08T07:53:05.802Z,77.30
2018-12-08T07:54:06.001Z,77.30
2018-12-08T07:55:05.174Z,77.40
2018-12-08T07:56:05.395Z,77.50
2018-12-08T07:57:05.555Z,77.60
2018-12-08T07:58:05.735Z,77.60
2018-12-08T07:59:06.002Z,77.60
2018-12-08T08:00:05.275Z,77.70
2018-12-08T08:01:08.208Z,77.70
2018-12-08T08:02:07.699Z,77.80
2018-12-08T08:03:05.740Z,77.70
2018-12-08T08:04:05.889Z,77.70
2018-12-08T08:05:05.070Z,77.60
2018-12-08T08:06:07.832Z,77.70
2018-12-08T08:07:06.005Z,77.70
2018-12-08T08:08:05.193Z,77.70
2018-12-08T08:09:07.878Z,78.00
2018-12-08T08:10:05.887Z,77.90
2018-12-08T08:11:05.020Z,77.90
2018-12-08T08:12:10.300Z,78.00
2018-12-08T08:13:05.335Z,78.00
2018-12-08T08:14:08.273Z,78.00
2018-12-08T08:15:07.771Z,77.90
2018-12-08T08:16:08.364Z,77.90
2018-12-08T08:17:05.479Z,78.00
2018-12-08T08:18:05.647Z,78.00
2018-12-08T08:19:05.782Z,78.10
2018-12-08T08:20:08.424Z,78.00
2018-12-08T08:21:05.532Z,78.00
2018-12-08T08:22:05.641Z,78.00
2018-12-08T08:23:05.843Z,78.00
2018-12-08T08:24:05.987Z,78.00
2018-12-08T08:25:07.688Z,77.90
2018-12-08T08:26:05.868Z,77.90
2018-12-08T08:27:05.046Z,77.90
2018-12-08T08:28:05.237Z,77.90
2018-12-08T08:29:05.882Z,78.00
2018-12-08T08:30:05.292Z,78.00
2018-12-08T08:31:07.937Z,78.10
2018-12-08T08:32:06.068Z,78.10
2018-12-08T08:33:05.905Z,78.30
2018-12-08T08:34:08.505Z,78.50
2018-12-08T08:35:05.960Z,78.50
2018-12-08T08:36:05.151Z,78.60
2018-12-08T08:37:05.302Z,78.60
2018-12-08T08:38:05.780Z,78.70
2018-12-08T08:39:05.866Z,78.80
2018-12-08T08:40:08.001Z,78.90
2018-12-08T08:41:05.042Z,78.90
2018-12-08T08:42:05.178Z,78.80
2018-12-08T08:43:07.899Z,79.00
2018-12-08T08:44:05.909Z,78.80
2018-12-08T08:45:07.505Z,78.80
2018-12-08T08:46:05.534Z,78.80
2018-12-08T08:47:08.186Z,78.90
2018-12-08T08:48:05.198Z,78.90
2018-12-08T08:49:05.550Z,79.30
2018-12-08T08:50:05.647Z,79.30
2018-12-08T08:51:08.382Z,78.80
2018-12-08T08:52:08.002Z,78.60
2018-12-08T08:53:05.058Z,78.60
2018-12-08T08:54:07.792Z,78.50
2018-12-08T08:55:05.827Z,78.50
2018-12-08T08:56:08.582Z,78.10
2018-12-08T08:57:10.622Z,78.10
2018-12-08T08:58:05.588Z,78.10
2018-12-08T08:59:05.729Z,78.00
2018-12-08T09:00:08.472Z,77.90
2018-12-08T09:01:05.603Z,77.90
2018-12-08T09:02:05.875Z,77.90
2018-12-08T09:03:05.124Z,78.00
2018-12-08T09:04:05.341Z,78.50
2018-12-08T09:05:08.203Z,78.50
2018-12-08T09:06:05.235Z,78.50
2018-12-08T09:07:05.498Z,78.70
2018-12-08T09:08:08.165Z,78.50
2018-12-08T09:09:07.627Z,78.50
2018-12-08T09:10:05.566Z,78.30
2018-12-08T09:11:08.185Z,78.40
2018-12-08T09:12:05.204Z,78.40
2018-12-08T09:13:07.960Z,78.40
2018-12-08T09:14:13.015Z,78.40
2018-12-08T09:15:08.243Z,78.40
2018-12-08T09:16:06.323Z,78.30
2018-12-08T09:17:05.568Z,78.30
2018-12-08T09:18:05.722Z,78.50
2018-12-08T09:19:06.188Z,78.40
2018-12-08T09:20:05.456Z,78.40
2018-12-08T09:21:05.716Z,78.40
2018-12-08T09:22:08.343Z,78.40
2018-12-08T09:23:05.347Z,78.40
2018-12-08T09:24:08.292Z,78.10
2018-12-08T09:25:07.916Z,78.10
2018-12-08T09:26:06.114Z,78.10
2018-12-08T09:27:05.259Z,78.20
2018-12-08T09:28:05.337Z,78.10
2018-12-08T09:29:08.818Z,77.80
2018-12-08T09:30:05.871Z,77.80
2018-12-08T09:31:07.563Z,77.70
2018-12-08T09:32:05.734Z,77.70
2018-12-08T09:33:05.896Z,77.70
2018-12-08T09:34:07.536Z,77.50
2018-12-08T09:35:05.567Z,77.50
2018-12-08T09:36:05.781Z,77.70
2018-12-08T09:37:08.785Z,78.00
2018-12-08T09:38:05.914Z,77.90
2018-12-08T09:39:07.766Z,78.10
2018-12-08T09:40:05.892Z,78.00
2018-12-08T09:41:05.101Z,78.10
2018-12-08T09:42:07.892Z,77.90
2018-12-08T09:43:06.126Z,77.90
2018-12-08T09:44:05.270Z,77.70
2018-12-08T09:45:05.453Z,77.60
2018-12-08T09:46:05.565Z,77.50
2018-12-08T09:47:05.797Z,77.60
2018-12-08T09:48:06.112Z,77.70
2018-12-08T09:49:05.418Z,77.70
2018-12-08T09:50:05.584Z,77.90
2018-12-08T09:51:08.228Z,77.80
2018-12-08T09:52:05.326Z,77.70
2018-12-08T09:53:07.988Z,77.70
2018-12-08T09:54:07.516Z,77.70
2018-12-08T09:55:05.508Z,77.70
2018-12-08T09:56:08.146Z,77.80
2018-12-08T09:57:05.155Z,77.80
2018-12-08T09:58:07.889Z,77.70
2018-12-08T09:59:05.998Z,77.60
2018-12-08T10:00:05.625Z,77.60
2018-12-08T10:01:08.262Z,77.90
2018-12-08T10:02:05.391Z,77.70
2018-12-08T10:03:05.709Z,77.40
2018-12-08T10:04:05.894Z,77.60
2018-12-08T10:05:07.536Z,77.60
2018-12-08T10:06:08.070Z,77.90
2018-12-08T10:07:05.098Z,77.60
2018-12-08T10:08:05.261Z,77.80
2018-12-08T10:09:05.447Z,77.80
2018-12-08T10:10:05.629Z,77.80
2018-12-08T10:11:05.901Z,77.60
2018-12-08T10:12:05.100Z,77.60
2018-12-08T10:13:07.735Z,77.50
2018-12-08T10:14:05.792Z,77.50
2018-12-08T10:15:05.958Z,77.10
2018-12-08T10:16:05.244Z,77.30
2018-12-08T10:17:05.485Z,77.40
2018-12-08T10:18:05.757Z,77.30
2018-12-08T10:19:05.917Z,77.50
2018-12-08T10:20:05.330Z,77.60
2018-12-08T10:21:07.962Z,77.20
2018-12-08T10:22:07.580Z,77.30
2018-12-08T10:23:08.571Z,77.40
2018-12-08T10:24:05.631Z,77.30
2018-12-08T10:25:08.320Z,76.30
2018-12-08T10:26:05.366Z,76.20
2018-12-08T10:27:08.092Z,75.90
2018-12-08T10:28:07.642Z,75.70
2018-12-08T10:29:05.652Z,75.70
2018-12-08T10:30:08.312Z,75.70
2018-12-08T10:31:05.387Z,75.70
2018-12-08T10:32:05.596Z,75.60
2018-12-08T10:33:05.794Z,75.60
2018-12-08T10:34:05.954Z,75.70
2018-12-08T10:35:05.440Z,75.10
2018-12-08T10:36:05.657Z,75.00
2018-12-08T10:37:08.315Z,75.00
2018-12-08T10:38:07.810Z,75.20
2018-12-08T10:39:05.949Z,75.10
2018-12-08T10:40:07.737Z,75.20
2018-12-08T10:41:05.860Z,75.20
2018-12-08T10:42:05.098Z,75.50
2018-12-08T10:43:05.309Z,75.50
2018-12-08T10:44:05.487Z,75.50
2018-12-08T10:45:08.280Z,75.30
2018-12-08T10:46:10.384Z,75.30
2018-12-08T10:47:05.463Z,75.30
2018-12-08T10:48:05.708Z,75.30
2018-12-08T10:49:05.896Z,75.40
2018-12-08T10:50:05.079Z,75.60
2018-12-08T10:51:10.406Z,75.70
2018-12-08T10:52:05.510Z,75.80
2018-12-08T10:53:05.725Z,75.70
2018-12-08T10:54:05.970Z,75.70
2018-12-08T10:55:07.603Z,75.70
2018-12-08T10:56:05.625Z,75.70
2018-12-08T10:57:05.881Z,75.60
2018-12-08T10:58:05.095Z,75.70
2018-12-08T10:59:05.243Z,75.60
2018-12-08T11:00:05.364Z,75.90
2018-12-08T11:01:07.995Z,75.80
2018-12-08T11:02:05.988Z,76.10
2018-12-08T11:03:07.644Z,76.00
2018-12-08T11:04:08.349Z,76.00
2018-12-08T11:05:05.523Z,76.10
2018-12-08T11:06:08.196Z,76.10
2018-12-08T11:07:05.347Z,76.10
2018-12-08T11:08:05.590Z,76.10
2018-12-08T11:09:05.721Z,76.00
2018-12-08T11:10:08.357Z,76.10
2018-12-08T11:11:07.881Z,75.80
2018-12-08T11:12:05.862Z,75.80
2018-12-08T11:13:07.515Z,75.90
2018-12-08T11:14:08.041Z,75.70
2018-12-08T11:15:05.019Z,75.60
2018-12-08T11:16:05.109Z,75.40
2018-12-08T11:17:07.934Z,75.30
2018-12-08T11:18:08.439Z,75.10
2018-12-08T11:19:05.518Z,75.20
2018-12-08T11:20:05.696Z,75.40
2018-12-08T11:21:08.361Z,75.00
2018-12-08T11:22:07.904Z,75.50
2018-12-08T11:23:06.040Z,75.50
2018-12-08T11:24:05.202Z,75.40
2018-12-08T11:25:05.703Z,75.20
2018-12-08T11:26:05.826Z,75.20
2018-12-08T11:27:08.455Z,75.30
2018-12-08T11:28:05.489Z,75.30
2018-12-08T11:29:05.948Z,75.50
2018-12-08T11:30:05.303Z,75.50
2018-12-08T11:31:07.999Z,75.30
2018-12-08T11:32:05.175Z,75.20
2018-12-08T11:33:07.956Z,74.90
2018-12-08T11:34:05.022Z,74.90
2018-12-08T11:35:05.173Z,75.00
2018-12-08T11:36:05.493Z,75.30
2018-12-08T11:37:08.148Z,74.90
2018-12-08T11:38:05.324Z,74.90
2018-12-08T11:39:05.565Z,75.30
2018-12-08T11:40:05.826Z,75.10
2018-12-08T11:41:05.223Z,74.80
2018-12-08T11:42:05.425Z,74.80
2018-12-08T11:43:05.644Z,74.40
2018-12-08T11:44:05.759Z,74.30
2018-12-08T11:45:05.968Z,74.30
2018-12-08T11:46:07.589Z,74.20
2018-12-08T11:47:05.647Z,74.10
2018-12-08T11:48:05.747Z,73.60
2018-12-08T11:49:07.864Z,73.00
2018-12-08T11:50:08.459Z,73.30
2018-12-08T11:51:08.063Z,73.30
2018-12-08T11:52:05.100Z,73.30
2018-12-08T11:53:10.359Z,73.30
2018-12-08T11:54:05.514Z,73.30
2018-12-08T11:55:05.735Z,73.50
2018-12-08T11:56:06.047Z,73.70
2018-12-08T11:57:05.158Z,73.60
2018-12-08T11:58:07.776Z,73.50
2018-12-08T11:59:10.848Z,73.30
2018-12-08T12:00:05.852Z,73.30
2018-12-08T12:01:06.089Z,73.30
2018-12-08T12:02:05.236Z,73.20
2018-12-08T12:03:10.384Z,72.90
2018-12-08T12:04:05.361Z,72.90
2018-12-08T12:05:05.510Z,73.10
2018-12-08T12:06:08.235Z,72.90
2018-12-08T12:07:05.206Z,72.90
2018-12-08T12:08:05.476Z,72.90
2018-12-08T12:09:05.683Z,73.00
2018-12-08T12:10:08.472Z,72.90
2018-12-08T12:11:05.582Z,73.00
2018-12-08T12:12:05.850Z,73.10
2018-12-08T12:13:05.056Z,72.90
2018-12-08T12:14:05.183Z,72.90
2018-12-08T12:15:05.261Z,72.90
2018-12-08T12:16:05.491Z,72.90
2018-12-08T12:17:08.215Z,73.30
2018-12-08T12:18:05.228Z,73.30
2018-12-08T12:19:07.910Z,73.20
2018-12-08T12:20:05.904Z,72.50
2018-12-08T12:21:07.674Z,73.50
2018-12-08T12:22:05.736Z,73.50
2018-12-08T12:23:08.529Z,73.60
2018-12-08T12:24:08.214Z,73.20
2018-12-08T12:25:05.365Z,73.20
2018-12-08T12:26:08.109Z,73.50
2018-12-08T12:27:05.092Z,73.60
2018-12-08T12:28:07.732Z,73.40
2018-12-08T12:29:05.782Z,73.30
2018-12-08T12:30:05.875Z,73.30
2018-12-08T12:31:08.538Z,73.40
2018-12-08T12:32:05.615Z,73.40
2018-12-08T12:33:08.249Z,73.40
2018-12-08T12:34:07.882Z,73.50
2018-12-08T12:35:05.916Z,73.50
2018-12-08T12:36:05.025Z,73.70
2018-12-08T12:37:10.309Z,73.90
2018-12-08T12:38:07.956Z,73.90
2018-12-08T12:39:05.923Z,73.90
2018-12-08T12:40:07.626Z,74.00
2018-12-08T12:41:05.544Z,73.90
2018-12-08T12:42:05.642Z,73.80
2018-12-08T12:43:05.783Z,73.90
2018-12-08T12:44:06.106Z,74.10
2018-12-08T12:45:05.293Z,74.40
2018-12-08T12:46:08.064Z,74.40
2018-12-08T12:47:05.115Z,74.40
2018-12-08T12:48:05.388Z,74.50
2018-12-08T12:49:05.855Z,74.60
2018-12-08T12:50:05.033Z,74.70
2018-12-08T12:51:07.695Z,74.40
2018-12-08T12:52:05.854Z,74.40